createdAt,value
2019-05-22T00:04:53.670Z,15.00
2019-05-22T00:10:35.542Z,15.10
2019-05-22T00:15:41.078Z,15.00
2019-05-22T00:20:47.484Z,15.10
2019-05-22T00:25:54.149Z,15.10
2019-05-22T00:31:01.613Z,15.10
2019-05-22T00:36:06.564Z,15.10
2019-05-22T00:41:12.198Z,15.20
2019-05-22T00:46:18.668Z,15.30
2019-05-22T00:52:02.173Z,15.40
2019-05-22T00:57:12.228Z,15.50
2019-05-22T01:02:18.753Z,15.70
2019-05-22T01:07:25.255Z,15.70
2019-05-22T01:12:30.960Z,15.80
2019-05-22T01:17:37.073Z,15.80
2019-05-22T01:22:45.417Z,15.90
2019-05-22T01:27:49.946Z,16.00
2019-05-22T01:33:34.069Z,16.00
2019-05-22T01:38:42.139Z,16.00
2019-05-22T01:43:48.830Z,16.00
2019-05-22T01:49:35.562Z,16.00
2019-05-22T01:54:41.219Z,16.00
2019-05-22T01:59:47.554Z,15.90
2019-05-22T02:04:53.379Z,15.80
2019-05-22T02:10:38.575Z,15.80
2019-05-22T02:15:46.962Z,15.80
2019-05-22T02:21:28.642Z,15.80
2019-05-22T02:26:34.696Z,15.90
2019-05-22T02:32:18.166Z,15.90
2019-05-22T02:37:27.206Z,15.90
2019-05-22T02:43:09.343Z,15.90
2019-05-22T02:48:18.830Z,15.90
2019-05-22T02:53:43.549Z,15.80
2019-05-22T02:58:49.429Z,15.80
2019-05-22T03:03:55.097Z,15.80
2019-05-22T03:09:02.956Z,15.80
2019-05-22T03:14:45.095Z,15.80
2019-05-22T03:19:51.246Z,15.90
2019-05-22T03:25:33.618Z,16.00
2019-05-22T03:30:41.537Z,16.00
2019-05-22T03:36:24.958Z,15.90
2019-05-22T03:41:30.343Z,16.00
2019-05-22T03:47:12.138Z,16.10
2019-05-22T03:52:17.120Z,16.00
2019-05-22T03:57:23.846Z,15.90
2019-05-22T04:02:28.978Z,16.10
2019-05-22T04:08:11.410Z,16.10
2019-05-22T04:13:16.636Z,16.10
2019-05-22T04:18:22.995Z,16.10
2019-05-22T04:23:28.181Z,16.10
2019-05-22T04:29:11.161Z,16.10
2019-05-22T04:34:17.040Z,16.20
2019-05-22T04:39:59.812Z,16.20
2019-05-22T04:45:09.183Z,16.30
2019-05-22T04:50:15.724Z,16.40
2019-05-22T04:55:21.120Z,16.50
2019-05-22T05:00:28.206Z,16.50
2019-05-22T05:05:38.968Z,16.60
2019-05-22T05:10:47.341Z,16.50
2019-05-22T05:15:53.330Z,16.40
2019-05-22T05:20:58.289Z,16.40
2019-05-22T05:26:03.185Z,16.30
2019-05-22T05:31:08.054Z,16.20
2019-05-22T05:36:12.848Z,16.10
2019-05-22T05:41:19.495Z,16.10
2019-05-22T05:46:24.553Z,16.20
2019-05-22T05:52:07.508Z,16.30
2019-05-22T05:57:16.300Z,16.30
2019-05-22T06:02:59.643Z,16.30
2019-05-22T06:08:05.072Z,16.50
2019-05-22T06:13:47.417Z,16.70
2019-05-22T06:18:56.810Z,16.80
2019-05-22T06:24:37.105Z,17.20
2019-05-22T06:29:45.528Z,17.60
2019-05-22T06:34:50.615Z,17.90
2019-05-22T06:40:05.866Z,18.10
2019-05-22T06:45:12.737Z,18.20
2019-05-22T06:50:18.589Z,18.60
2019-05-22T06:56:02.369Z,19.10
2019-05-22T07:01:07.856Z,19.20
2019-05-22T07:06:49.237Z,18.80
2019-05-22T07:11:55.174Z,18.60
2019-05-22T07:17:38.028Z,18.70
2019-05-22T07:22:44.236Z,18.80
2019-05-22T07:27:50.161Z,19.00
2019-05-22T07:32:55.777Z,19.20
2019-05-22T07:38:37.310Z,19.50
2019-05-22T07:43:42.370Z,20.10
2019-05-22T07:48:48.567Z,20.50
2019-05-22T07:53:53.645Z,20.60
2019-05-22T07:59:02.079Z,21.10
2019-05-22T08:04:07.177Z,21.40
2019-05-22T08:09:48.738Z,21.80
2019-05-22T08:14:58.101Z,22.20
2019-05-22T08:20:06.676Z,22.20
2019-05-22T08:25:33.381Z,22.60
2019-05-22T08:30:42.730Z,21.70
2019-05-22T08:35:48.842Z,21.30
2019-05-22T08:40:55.475Z,21.20
2019-05-22T08:46:02.314Z,21.70
2019-05-22T08:51:10.727Z,22.00
2019-05-22T08:56:52.774Z,22.90
2019-05-22T09:01:58.054Z,22.90
2019-05-22T09:07:03.710Z,23.10
2019-05-22T09:12:11.462Z,23.80
2019-05-22T09:17:18.278Z,23.00
2019-05-22T09:22:39.560Z,21.70
2019-05-22T09:27:32.701Z,20.40
2019-05-22T09:32:41.515Z,20.00
2019-05-22T09:37:46.571Z,20.70
2019-05-22T09:42:51.967Z,20.30
2019-05-22T09:47:57.367Z,20.10
2019-05-22T09:53:02.836Z,20.00
2019-05-22T09:58:08.703Z,20.30
2019-05-22T10:03:13.858Z,20.40
2019-05-22T10:08:19.130Z,20.50
2019-05-22T10:13:28.960Z,21.40
2019-05-22T10:18:32.570Z,21.20
2019-05-22T10:24:14.234Z,21.10
2019-05-22T10:29:19.583Z,21.60
2019-05-22T10:34:25.162Z,25.20
2019-05-22T10:39:30.972Z,26.10
2019-05-22T10:44:36.571Z,25.70
2019-05-22T10:49:42.071Z,25.30
2019-05-22T10:54:47.017Z,25.10
2019-05-22T10:59:52.349Z,27.70
2019-05-22T11:04:57.676Z,28.50
2019-05-22T11:10:04.510Z,27.50
2019-05-22T11:15:10.261Z,25.00
2019-05-22T11:20:15.630Z,24.40
2019-05-22T11:25:21.596Z,24.60
2019-05-22T11:30:30.659Z,24.50
2019-05-22T11:36:13.156Z,24.00
2019-05-22T11:41:22.187Z,24.10
2019-05-22T11:46:30.091Z,24.10
2019-05-22T11:51:35.330Z,23.50
2019-05-22T11:56:40.987Z,22.70
2019-05-22T12:01:48.112Z,23.00
2019-05-22T12:06:54.399Z,25.70
2019-05-22T12:11:59.926Z,25.10
2019-05-22T12:17:06.492Z,24.20
2019-05-22T12:22:14.081Z,23.80
2019-05-22T12:27:22.103Z,23.30
2019-05-22T12:32:27.689Z,22.50
2019-05-22T12:37:35.833Z,22.30
2019-05-22T12:42:43.497Z,22.20
2019-05-22T12:47:48.676Z,22.50
2019-05-22T12:52:54.979Z,22.40
2019-05-22T12:58:05.512Z,21.20
2019-05-22T13:03:13.223Z,20.10
2019-05-22T13:08:28.997Z,20.10
2019-05-22T13:13:42.198Z,20.30
2019-05-22T13:18:49.218Z,20.70
2019-05-22T13:23:55.250Z,21.00
2019-05-22T13:29:05.800Z,20.60
2019-05-22T13:34:15.785Z,20.50
2019-05-22T13:39:22.314Z,20.80
2019-05-22T13:44:32.032Z,21.40
2019-05-22T13:49:42.337Z,22.00
2019-05-22T13:54:56.493Z,22.40
2019-05-22T14:00:03.785Z,22.40
2019-05-22T14:05:47.057Z,22.20
2019-05-22T14:10:53.365Z,20.20
2019-05-22T14:15:58.547Z,18.70
2019-05-22T14:21:03.562Z,18.20
2019-05-22T14:26:08.727Z,17.90
2019-05-22T14:31:13.944Z,17.50
2019-05-22T14:36:19.229Z,17.60
2019-05-22T14:41:25.383Z,17.80
2019-05-22T14:46:32.619Z,17.90
2019-05-22T14:51:40.319Z,17.70
2019-05-22T14:56:47.294Z,17.60
2019-05-22T15:01:53.067Z,17.40
2019-05-22T15:06:58.648Z,17.10
2019-05-22T15:12:08.973Z,16.80
2019-05-22T15:17:31.125Z,16.50
2019-05-22T15:22:22.861Z,16.50
2019-05-22T15:28:07.153Z,16.30
2019-05-22T15:33:12.526Z,16.10
2019-05-22T15:38:18.574Z,15.80
2019-05-22T15:43:25.740Z,15.70
2019-05-22T15:48:33.241Z,15.60
2019-05-22T15:53:39.624Z,15.50
2019-05-22T15:58:45.856Z,15.50
2019-05-22T16:03:52.499Z,15.40
2019-05-22T16:08:57.864Z,15.30
2019-05-22T16:14:03.998Z,15.20
2019-05-22T16:19:10.743Z,15.10
2019-05-22T16:24:16.670Z,15.00
2019-05-22T16:29:59.368Z,15.00
2019-05-22T16:35:05.908Z,15.00
2019-05-22T16:40:11.493Z,14.90
2019-05-22T16:45:50.996Z,14.90
2019-05-22T16:51:02.758Z,14.90
2019-05-22T16:56:47.541Z,14.80
2019-05-22T17:01:59.234Z,14.90
2019-05-22T17:06:59.918Z,15.00
2019-05-22T17:12:07.983Z,15.00
2019-05-22T17:17:49.863Z,15.00
2019-05-22T17:22:55.268Z,15.00
2019-05-22T17:28:00.513Z,15.00
2019-05-22T17:33:07.484Z,14.90
2019-05-22T17:38:12.564Z,14.80
2019-05-22T17:43:18.725Z,14.80
2019-05-22T17:48:24.109Z,14.80
2019-05-22T17:53:29.361Z,14.70
2019-05-22T17:59:10.800Z,14.70
2019-05-22T18:04:16.443Z,14.70
2019-05-22T18:09:22.734Z,14.70
2019-05-22T18:14:33.449Z,14.70
2019-05-22T18:20:16.205Z,14.70
2019-05-22T18:25:23.763Z,14.60
2019-05-22T18:31:06.614Z,14.70
2019-05-22T18:36:17.993Z,14.60
2019-05-22T18:41:59.566Z,14.60
2019-05-22T18:47:05.240Z,14.60
2019-05-22T18:52:10.785Z,14.50
2019-05-22T18:57:52.942Z,14.40
2019-05-22T19:02:58.078Z,14.40
2019-05-22T19:08:11.549Z,14.30
2019-05-22T19:13:18.598Z,14.30
2019-05-22T19:19:00.443Z,14.30
2019-05-22T19:24:05.691Z,14.20
2019-05-22T19:29:47.524Z,14.20
2019-05-22T19:34:52.902Z,14.20
2019-05-22T19:40:36.123Z,14.10
2019-05-22T19:45:41.567Z,14.00
2019-05-22T19:50:47.326Z,13.90
2019-05-22T19:55:52.743Z,13.90
2019-05-22T20:00:59.460Z,13.80
2019-05-22T20:06:05.699Z,13.80
2019-05-22T20:11:51.229Z,13.70
2019-05-22T20:16:56.259Z,13.70
2019-05-22T20:22:05.173Z,13.60
2019-05-22T20:27:10.912Z,13.60
2019-05-22T20:32:58.012Z,13.50
2019-05-22T20:38:40.265Z,13.50
2019-05-22T20:43:48.884Z,13.40
2019-05-22T20:48:54.293Z,13.30
2019-05-22T20:54:00.099Z,13.30
2019-05-22T20:59:13.164Z,13.20
2019-05-22T21:04:19.802Z,13.20
2019-05-22T21:10:06.408Z,13.20
2019-05-22T21:15:15.093Z,13.20
2019-05-22T21:21:02.444Z,13.20
2019-05-22T21:26:08.994Z,13.20
2019-05-22T21:31:18.561Z,13.20
2019-05-22T21:37:02.578Z,13.10
2019-05-22T21:42:09.842Z,13.10
2019-05-22T21:47:52.815Z,13.10
2019-05-22T21:52:58.435Z,13.00
2019-05-22T21:58:41.278Z,13.00
2019-05-22T22:03:48.590Z,12.90
2019-05-22T22:09:34.386Z,12.90
2019-05-22T22:14:40.182Z,12.90
2019-05-22T22:20:22.331Z,12.90
2019-05-22T22:25:34.087Z,12.80
2019-05-22T22:31:21.410Z,12.80
2019-05-22T22:36:26.551Z,12.70
2019-05-22T22:42:10.081Z,12.70
2019-05-22T22:47:16.639Z,12.70
2019-05-22T22:52:22.606Z,12.60
2019-05-22T22:57:27.765Z,12.50
2019-05-22T23:03:11.227Z,12.40
2019-05-22T23:08:21.145Z,12.50
2019-05-22T23:14:06.511Z,12.40
2019-05-22T23:19:11.529Z,12.40
2019-05-22T23:24:16.687Z,12.40
2019-05-22T23:29:22.796Z,12.30
2019-05-22T23:35:05.540Z,12.30
2019-05-22T23:40:11.377Z,12.30
2019-05-22T23:45:19.468Z,12.20
2019-05-22T23:50:24.512Z,12.20
2019-05-22T23:55:30.847Z,12.20
